Time,TemperatureF,DewpointF,PressureIn,WindDirection,WindDirectionDegrees,WindSpeedMPH,WindSpeedGustMPH,Humidity,HourlyPrecipIn,Conditions,Clouds,dailyrainin,SoftwareType,DateUTC
2013-11-23 00:05:00,46.9,26.0,29.96,South,174,1.0,4.0,44,0.00,,,0.00,weatherlink.com 1.10,2013-11-23 08:05:00,
2013-11-23 00:20:00,46.2,25.0,29.96,South,174,1.0,2.0,44,0.00,,,0.00,weatherlink.com 1.10,2013-11-23 08:20:00,
2013-11-23 00:35:00,45.3,29.0,29.96,South,174,1.0,2.0,54,0.00,,,0.00,weatherlink.com 1.10,2013-11-23 08:35:00,
2013-11-23 00:50:00,46.5,36.0,29.96,South,174,2.0,4.0,68,0.00,,,0.00,weatherlink.com 1.10,2013-11-23 08:50:00,
2013-11-23 01:05:00,43.9,31.0,29.96,South,174,1.0,4.0,61,0.00,,,0.00,weatherlink.com 1.10,2013-11-23 09:05:00,
2013-11-23 01:20:00,43.2,30.0,29.96,South,174,2.0,2.0,59,0.00,,,0.00,weatherlink.com 1.10,2013-11-23 09:20:00,
2013-11-23 01:35:00,42.0,31.0,29.97,South,174,2.0,3.0,64,0.00,,,0.00,weatherlink.com 1.10,2013-11-23 09:35:00,
2013-11-23 01:51:00,42.9,34.0,29.98,South,174,2.0,3.0,70,0.00,,,0.00,weatherlink.com 1.10,2013-11-23 09:51:00,
2013-11-23 02:06:00,45.2,30.0,29.98,South,174,1.0,3.0,56,0.00,,,0.00,weatherlink.com 1.10,2013-11-23 10:06:00,
2013-11-23 02:21:00,47.5,29.0,29.98,South,174,2.0,6.0,49,0.00,,,0.00,weatherlink.com 1.10,2013-11-23 10:21:00,
2013-11-23 02:36:00,47.3,29.0,29.98,South,175,1.0,2.0,50,0.00,,,0.00,weatherlink.com 1.10,2013-11-23 10:36:00,
2013-11-23 02:51:00,44.1,29.0,29.98,South,174,1.0,2.0,55,0.00,,,0.00,weatherlink.com 1.10,2013-11-23 10:51:00,
2013-11-23 03:06:00,43.1,29.0,29.98,South,174,1.0,2.0,58,0.00,,,0.00,weatherlink.com 1.10,2013-11-23 11:06:00,
2013-11-23 03:21:00,43.2,27.0,29.98,South,175,1.0,2.0,54,0.00,,,0.00,weatherlink.com 1.10,2013-11-23 11:21:00,
2013-11-23 03:36:00,44.8,30.0,29.98,South,174,3.0,5.0,56,0.00,,,0.00,weatherlink.com 1.10,2013-11-23 11:36:00,
2013-11-23 03:51:00,46.0,34.0,29.98,South,174,0.0,2.0,64,0.00,,,0.00,weatherlink.com 1.10,2013-11-23 11:51:00,
2013-11-23 04:06:00,46.6,34.0,29.98,South,174,0.0,2.0,63,0.00,,,0.00,weatherlink.com 1.10,2013-11-23 12:06:00,
2013-11-23 04:21:00,47.7,32.0,29.99,South,174,3.0,4.0,56,0.00,,,0.00,weatherlink.com 1.10,2013-11-23 12:21:00,
2013-11-23 04:36:00,46.9,36.0,29.99,South,174,1.0,4.0,65,0.00,,,0.00,weatherlink.com 1.10,2013-11-23 12:36:00,
2013-11-23 04:51:00,44.9,36.0,29.99,South,174,2.0,3.0,70,0.00,,,0.00,weatherlink.com 1.10,2013-11-23 12:51:00,
2013-11-23 05:06:00,45.4,37.0,29.99,South,175,2.0,3.0,73,0.00,,,0.00,weatherlink.com 1.10,2013-11-23 13:06:00,
2013-11-23 05:21:00,43.9,36.0,30.00,South,174,2.0,3.0,73,0.00,,,0.00,weatherlink.com 1.10,2013-11-23 13:21:00,
2013-11-23 05:36:00,44.0,35.0,30.00,South,174,1.0,3.0,71,0.00,,,0.00,weatherlink.com 1.10,2013-11-23 13:36:00,
2013-11-23 05:51:00,44.7,36.0,30.00,South,174,1.0,6.0,72,0.00,,,0.00,weatherlink.com 1.10,2013-11-23 13:51:00,
2013-11-23 06:06:00,43.7,34.0,30.00,South,174,1.0,3.0,70,0.00,,,0.00,weatherlink.com 1.10,2013-11-23 14:06:00,
2013-11-23 06:21:00,43.1,34.0,30.01,South,174,0.0,5.0,70,0.00,,,0.00,weatherlink.com 1.10,2013-11-23 14:21:00,
2013-11-23 06:36:00,42.4,33.0,30.01,South,174,3.0,3.0,70,0.00,,,0.00,weatherlink.com 1.10,2013-11-23 14:36:00,
2013-11-23 06:51:00,40.4,32.0,30.02,South,175,1.0,3.0,72,0.00,,,0.00,weatherlink.com 1.10,2013-11-23 14:51:00,
2013-11-23 07:06:00,39.6,32.0,30.03,South,174,0.0,3.0,73,0.00,,,0.00,weatherlink.com 1.10,2013-11-23 15:06:00,
2013-11-23 07:21:00,45.6,36.0,30.03,South,174,6.0,12.0,70,0.00,,,0.00,weatherlink.com 1.10,2013-11-23 15:21:00,
2013-11-23 07:36:00,45.6,36.0,30.03,South,174,1.0,9.0,68,0.00,,,0.00,weatherlink.com 1.10,2013-11-23 15:36:00,
2013-11-23 07:51:00,43.3,34.0,30.04,South,174,3.0,5.0,69,0.00,,,0.00,weatherlink.com 1.10,2013-11-23 15:51:00,
2013-11-23 08:06:00,46.2,33.0,30.05,South,174,4.0,5.0,61,0.00,,,0.00,weatherlink.com 1.10,2013-11-23 16:06:00,
2013-11-23 08:21:00,47.2,35.0,30.05,South,174,3.0,7.0,64,0.00,,,0.00,weatherlink.com 1.10,2013-11-23 16:21:00,
2013-11-23 08:36:00,49.8,36.0,30.05,South,174,5.0,9.0,59,0.00,,,0.00,weatherlink.com 1.10,2013-11-23 16:36:00,
2013-11-23 08:51:00,52.0,35.0,30.05,South,174,6.0,8.0,53,0.00,,,0.00,weatherlink.com 1.10,2013-11-23 16:51:00,
2013-11-23 09:06:00,53.2,37.0,30.05,South,174,5.0,9.0,54,0.00,,,0.00,weatherlink.com 1.10,2013-11-23 17:06:00,
2013-11-23 09:22:00,54.5,36.0,30.05,South,174,5.0,9.0,51,0.00,,,0.00,weatherlink.com 1.10,2013-11-23 17:22:00,
2013-11-23 09:37:00,55.1,37.0,30.05,South,174,6.0,11.0,51,0.00,,,0.00,weatherlink.com 1.10,2013-11-23 17:37:00,
2013-11-23 09:52:00,55.8,37.0,30.05,South,174,7.0,9.0,50,0.00,,,0.00,weatherlink.com 1.10,2013-11-23 17:52:00,
2013-11-23 10:07:00,56.7,35.0,30.05,South,175,6.0,10.0,45,0.00,,,0.00,weatherlink.com 1.10,2013-11-23 18:07:00,
2013-11-23 10:22:00,57.6,37.0,30.05,South,174,7.0,10.0,46,0.00,,,0.00,weatherlink.com 1.10,2013-11-23 18:22:00,
2013-11-23 10:37:00,57.9,38.0,30.05,South,174,9.0,11.0,48,0.00,,,0.00,weatherlink.com 1.10,2013-11-23 18:37:00,
2013-11-23 10:52:00,58.8,36.0,30.05,South,175,7.0,11.0,43,0.00,,,0.00,weatherlink.com 1.10,2013-11-23 18:52:00,
2013-11-23 11:07:00,59.6,37.0,30.04,South,174,7.0,9.0,44,0.00,,,0.00,weatherlink.com 1.10,2013-11-23 19:07:00,
2013-11-23 11:22:00,60.0,36.0,30.03,South,175,5.0,8.0,41,0.00,,,0.00,weatherlink.com 1.10,2013-11-23 19:22:00,
2013-11-23 11:37:00,59.5,41.0,30.03,South,174,4.0,6.0,50,0.00,,,0.00,weatherlink.com 1.10,2013-11-23 19:37:00,
2013-11-23 11:52:00,61.1,32.0,30.02,South,174,3.0,5.0,34,0.00,,,0.00,weatherlink.com 1.10,2013-11-23 19:52:00,
2013-11-23 12:07:00,59.8,39.0,30.02,South,174,4.0,9.0,46,0.00,,,0.00,weatherlink.com 1.10,2013-11-23 20:07:00,
2013-11-23 12:22:00,60.0,39.0,30.01,South,174,3.0,8.0,47,0.00,,,0.00,weatherlink.com 1.10,2013-11-23 20:22:00,
2013-11-23 12:37:00,59.8,38.0,30.01,South,175,4.0,8.0,44,0.00,,,0.00,weatherlink.com 1.10,2013-11-23 20:37:00,
2013-11-23 12:52:00,60.4,38.0,30.00,South,175,6.0,8.0,43,0.00,,,0.00,weatherlink.com 1.10,2013-11-23 20:52:00,
2013-11-23 13:07:00,59.6,40.0,30.00,South,174,5.0,8.0,49,0.00,,,0.00,weatherlink.com 1.10,2013-11-23 21:07:00,
2013-11-23 13:22:00,59.3,39.0,30.00,South,174,3.0,7.0,47,0.00,,,0.00,weatherlink.com 1.10,2013-11-23 21:22:00,
2013-11-23 13:37:00,60.2,40.0,30.00,South,174,2.0,3.0,48,0.00,,,0.00,weatherlink.com 1.10,2013-11-23 21:37:00,
2013-11-23 13:52:00,60.4,40.0,29.99,South,174,3.0,5.0,47,0.00,,,0.00,weatherlink.com 1.10,2013-11-23 21:52:00,
2013-11-23 14:07:00,61.4,39.0,29.99,South,175,6.0,6.0,43,0.00,,,0.00,weatherlink.com 1.10,2013-11-23 22:07:00,
2013-11-23 14:22:00,61.2,36.0,30.00,South,174,7.0,8.0,39,0.00,,,0.00,weatherlink.com 1.10,2013-11-23 22:22:00,
2013-11-23 14:37:00,61.6,37.0,30.00,South,174,2.0,6.0,40,0.00,,,0.00,weatherlink.com 1.10,2013-11-23 22:37:00,
2013-11-23 14:52:00,61.8,40.0,30.00,South,174,2.0,5.0,45,0.00,,,0.00,weatherlink.com 1.10,2013-11-23 22:52:00,
2013-11-23 15:08:00,61.2,40.0,30.00,South,175,2.0,5.0,45,0.00,,,0.00,weatherlink.com 1.10,2013-11-23 23:08:00,
2013-11-23 15:23:00,61.4,40.0,30.00,South,174,1.0,4.0,46,0.00,,,0.00,weatherlink.com 1.10,2013-11-23 23:23:00,
2013-11-23 15:38:00,59.2,42.0,30.01,South,174,1.0,7.0,54,0.00,,,0.00,weatherlink.com 1.10,2013-11-23 23:38:00,
2013-11-23 15:53:00,59.0,40.0,30.01,South,175,1.0,5.0,50,0.00,,,0.00,weatherlink.com 1.10,2013-11-23 23:53:00,
2013-11-23 16:08:00,59.2,39.0,30.01,South,174,2.0,2.0,48,0.00,,,0.00,weatherlink.com 1.10,2013-11-24 00:08:00,
2013-11-23 16:23:00,59.3,38.0,30.02,South,175,0.0,4.0,46,0.00,,,0.00,weatherlink.com 1.10,2013-11-24 00:23:00,
2013-11-23 16:38:00,56.0,40.0,30.01,South,174,0.0,2.0,55,0.00,,,0.00,weatherlink.com 1.10,2013-11-24 00:38:00,
2013-11-23 16:53:00,52.5,40.0,30.02,South,174,2.0,4.0,63,0.00,,,0.00,weatherlink.com 1.10,2013-11-24 00:53:00,
2013-11-23 17:08:00,51.8,41.0,30.02,South,174,3.0,5.0,66,0.00,,,0.00,weatherlink.com 1.10,2013-11-24 01:08:00,
2013-11-23 17:23:00,50.6,40.0,30.03,South,174,2.0,4.0,67,0.00,,,0.00,weatherlink.com 1.10,2013-11-24 01:23:00,
2013-11-23 17:38:00,48.1,39.0,30.03,South,174,2.0,4.0,71,0.00,,,0.00,weatherlink.com 1.10,2013-11-24 01:38:00,
2013-11-23 17:53:00,46.5,39.0,30.04,South,174,3.0,4.0,75,0.00,,,0.00,weatherlink.com 1.10,2013-11-24 01:53:00,
2013-11-23 18:08:00,45.6,38.0,30.04,South,174,3.0,3.0,75,0.00,,,0.00,weatherlink.com 1.10,2013-11-24 02:08:00,
2013-11-23 18:23:00,45.0,38.0,30.05,South,174,2.0,4.0,76,0.00,,,0.00,weatherlink.com 1.10,2013-11-24 02:23:00,
2013-11-23 18:38:00,44.8,38.0,30.06,South,174,4.0,5.0,76,0.00,,,0.00,weatherlink.com 1.10,2013-11-24 02:38:00,
2013-11-23 18:53:00,43.7,37.0,30.06,South,174,3.0,4.0,78,0.00,,,0.00,weatherlink.com 1.10,2013-11-24 02:53:00,
2013-11-23 19:08:00,43.2,37.0,30.06,South,174,1.0,2.0,79,0.00,,,0.00,weatherlink.com 1.10,2013-11-24 03:08:00,
2013-11-23 19:23:00,42.3,37.0,30.07,South,175,2.0,3.0,80,0.00,,,0.00,weatherlink.com 1.10,2013-11-24 03:23:00,
2013-11-23 19:38:00,41.7,36.0,30.08,South,174,2.0,3.0,80,0.00,,,0.00,weatherlink.com 1.10,2013-11-24 03:38:00,
2013-11-23 19:53:00,40.7,36.0,30.08,South,174,2.0,3.0,83,0.00,,,0.00,weatherlink.com 1.10,2013-11-24 03:53:00,
2013-11-23 20:08:00,40.6,36.0,30.08,South,174,1.0,2.0,84,0.00,,,0.00,weatherlink.com 1.10,2013-11-24 04:08:00,
2013-11-23 20:23:00,40.8,36.0,30.09,South,174,1.0,4.0,83,0.00,,,0.00,weatherlink.com 1.10,2013-11-24 04:23:00,
2013-11-23 20:38:00,39.4,35.0,30.09,South,174,2.0,3.0,83,0.00,,,0.00,weatherlink.com 1.10,2013-11-24 04:38:00,
2013-11-23 20:53:00,39.2,35.0,30.09,South,174,1.0,3.0,85,0.00,,,0.00,weatherlink.com 1.10,2013-11-24 04:53:00,
2013-11-23 21:08:00,38.8,35.0,30.10,South,174,1.0,3.0,86,0.00,,,0.00,weatherlink.com 1.10,2013-11-24 05:08:00,
2013-11-23 21:23:00,38.6,35.0,30.10,South,174,2.0,3.0,87,0.00,,,0.00,weatherlink.com 1.10,2013-11-24 05:23:00,
2013-11-23 21:38:00,38.4,35.0,30.11,South,174,1.0,3.0,87,0.00,,,0.00,weatherlink.com 1.10,2013-11-24 05:38:00,
2013-11-23 21:53:00,37.6,34.0,30.11,South,174,2.0,3.0,87,0.00,,,0.00,weatherlink.com 1.10,2013-11-24 05:53:00,
2013-11-23 22:08:00,37.6,34.0,30.11,South,174,2.0,2.0,88,0.00,,,0.00,weatherlink.com 1.10,2013-11-24 06:08:00,
2013-11-23 22:23:00,37.0,34.0,30.12,South,175,2.0,2.0,89,0.00,,,0.00,weatherlink.com 1.10,2013-11-24 06:23:00,
2013-11-23 22:38:00,36.8,34.0,30.12,South,174,1.0,2.0,90,0.00,,,0.00,weatherlink.com 1.10,2013-11-24 06:38:00,
2013-11-23 22:53:00,36.5,34.0,30.12,South,174,2.0,2.0,90,0.00,,,0.00,weatherlink.com 1.10,2013-11-24 06:53:00,
2013-11-23 23:08:00,35.9,33.0,30.12,South,174,2.0,2.0,90,0.00,,,0.00,weatherlink.com 1.10,2013-11-24 07:08:00,
2013-11-23 23:24:00,36.3,34.0,30.13,South,174,2.0,2.0,91,0.00,,,0.00,weatherlink.com 1.10,2013-11-24 07:24:00,
2013-11-23 23:39:00,35.7,34.0,30.13,South,174,1.0,2.0,92,0.00,,,0.00,weatherlink.com 1.10,2013-11-24 07:39:00,
2013-11-23 23:54:00,36.1,34.0,30.13,South,174,1.0,3.0,92,0.00,,,0.00,weatherlink.com 1.10,2013-11-24 07:54:00,